Rome, Italy

12:45 PM CET on December 05, 2016 (GMT +0100)
Fiumicino | | Change Station

Elev 10 ft 41.80 °N, 12.24 °E | Updated 25 minutes ago

Clear
Clear
63 °F
Feels Like 63 °F
N
6
Wind Variable Wind from ESE

Today
High -- | Low -- °F
--% Chance of Precip.
Yesterday
High -- | Low -- °F
Precip. -- in
Pressure 30.30 in
Visibility -9999.0 miles
Clouds
Dew Point 41 °F
Humidity 45%
Rainfall 0.00 in
Snow Depth Not available.
7:23 AM 4:40 PM
Waxing Crescent, 31% visible
METAR LIRF 051120Z 11005KT 070V180 CAVOK 17/05 Q1026 NOSIG
Pressure 30.30 in
Visibility -9999.0 miles
Clouds
Dew Point 41 °F
Humidity 45%
Rainfall 0.00 in
Snow Depth Not available.
7:23 AM 4:40 PM
Waxing Crescent, 31% visible
METAR LIRF 051120Z 11005KT 070V180 CAVOK 17/05 Q1026 NOSIG

10-Day Weather Forecast

×

Almanac

Astronomy

Dec. 05, 2016 Rise Set
Actual Time
Civil Twilight
Nautical Twilight
Astronomical Twilight
Moon
Length of Visible Light
Length of Day
Tomorrow will be .
, % of the Moon is Illuminated

Today's Extremes

Country Highs Country Lows

Community

WunderPhotos

Upload Photos

1,955,777 photos uploaded!

WunderBlog® & News

Nearby

Air Quality

  Air Quality AQ Index Pollutant
Not available.

Snow Depth

Station Depth Elevation

Earthquake Activity

City Distance Mag. Time & Date
Minimum magnitude displayed is 2.5.

Coastal Water Temperatures

Place Temperature

Stations

Nearby Weather Stations

Station Location Temp. Windchill Dew Point Humidity Wind Precip. Elev Updated Type